Time;durP1;ratioP1;P1;durP2;ratioP2;P2;SDS_P1;SDS_P2;PMS_P1;PMS_P2;Temp;Humidity;BMP_temperature;BMP_pressure;BME280_temperature;BME280_humidity;BME280_pressure;Samples;Min_cycle;Max_cycle;Signal;HPM_P1;HPM_P2
2023/05/09 00:01:10;;;;;;;0.30;0.20;;;;;;;7.17;100.00;100981.75;5033068;28;20033;-77
2023/05/09 00:03:35;;;;;;;0.68;0.68;;;;;;;7.27;100.00;100999.38;5030355;28;20037;-75
2023/05/09 00:06:01;;;;;;;0.73;0.73;;;;;;;6.58;100.00;100863.84;5031995;28;20095;-75
2023/05/09 00:08:26;;;;;;;1.65;1.13;;;;;;;7.41;100.00;100981.44;5032888;28;20072;-75
2023/05/09 00:10:52;;;;;;;4.60;2.38;;;;;;;7.42;100.00;100984.91;5035440;28;20052;-75
2023/05/09 00:13:18;;;;;;;6.55;3.25;;;;;;;7.44;100.00;100996.28;5033442;28;20046;-75
2023/05/09 00:15:43;;;;;;;4.38;2.63;;;;;;;7.33;100.00;100967.34;5031999;28;20443;-76
2023/05/09 00:18:10;;;;;;;4.57;2.13;;;;;;;7.04;100.00;100924.91;5045173;28;20033;-78
2023/05/09 00:20:35;;;;;;;0.85;0.75;;;;;;;7.04;100.00;100935.34;5035014;28;20041;-75
2023/05/09 00:23:01;;;;;;;1.58;0.57;;;;;;;7.31;100.00;101009.06;5046044;28;20057;-76
2023/05/09 00:25:26;;;;;;;1.55;0.73;;;;;;;6.60;100.00;100857.81;5030735;28;20050;-77
2023/05/09 00:27:51;;;;;;;2.60;1.30;;;;;;;7.16;100.00;100983.50;5039488;28;20037;-75
2023/05/09 00:30:17;;;;;;;3.80;2.10;;;;;;;7.33;100.00;100994.31;5035884;28;20045;-75
2023/05/09 00:32:42;;;;;;;6.25;2.35;;;;;;;6.19;100.00;100779.56;5047626;28;20064;-79
2023/05/09 00:35:08;;;;;;;4.97;3.05;;;;;;;6.73;100.00;100874.66;5043955;28;20040;-78
2023/05/09 00:37:34;;;;;;;0.70;0.60;;;;;;;7.10;100.00;100964.22;5035921;28;20120;-77
2023/05/09 00:39:59;;;;;;;5.13;3.10;;;;;;;6.60;100.00;100877.81;5031704;28;20033;-78
2023/05/09 00:42:25;;;;;;;0.47;0.47;;;;;;;7.28;100.00;101008.09;5011114;28;20034;-75
2023/05/09 00:44:50;;;;;;;0.30;0.30;;;;;;;7.00;100.00;100930.91;4997597;28;20046;-77
2023/05/09 00:47:16;;;;;;;4.50;2.50;;;;;;;7.05;100.00;100977.16;5013893;28;20045;-76
2023/05/09 00:49:41;;;;;;;1.85;1.50;;;;;;;7.21;100.00;100991.44;5033368;28;20133;-75
2023/05/09 00:52:07;;;;;;;0.38;0.38;;;;;;;7.08;100.00;100978.94;5032772;28;20022;-76
2023/05/09 00:54:33;;;;;;;6.15;3.28;;;;;;;7.08;100.00;100984.16;5033506;28;20607;-76
2023/05/09 00:56:59;;;;;;;0.57;0.45;;;;;;;7.19;100.00;101006.19;5042129;28;20041;-75
2023/05/09 00:59:26;;;;;;;1.55;1.20;;;;;;;6.73;100.00;100890.31;5040821;28;20094;-78
2023/05/09 01:01:51;;;;;;;0.43;0.43;;;;;;;7.42;100.00;101018.84;5035908;28;20100;-76
2023/05/09 01:04:16;;;;;;;0.50;0.50;;;;;;;7.14;100.00;100981.66;5029890;28;20444;-75
2023/05/09 01:07:01;;;;;;;0.70;0.68;;;;;;;7.24;100.00;101017.59;5041194;28;20061;-78
2023/05/09 01:09:45;;;;;;;7.07;4.47;;;;;;;7.30;100.00;101025.56;5026593;28;20048;-77
2023/05/09 01:12:37;;;;;;;0.98;0.95;;;;;;;7.09;100.00;100984.19;5024425;28;20053;-77
2023/05/09 01:15:05;;;;;;;1.35;0.73;;;;;;;7.30;100.00;101007.28;5010695;28;20045;-77
2023/05/09 01:17:46;;;;;;;4.72;2.75;;;;;;;7.33;100.00;101024.78;5016510;28;20537;-76
2023/05/09 01:20:35;;;;;;;4.68;2.78;;;;;;;7.51;100.00;101009.50;5025627;28;20049;-76
2023/05/09 01:23:19;;;;;;;4.82;2.70;;;;;;;6.47;100.00;100861.88;5026814;28;20040;-79
2023/05/09 01:26:26;;;;;;;1.85;1.75;;;;;;;7.43;100.00;101005.84;5017766;28;20045;-81
2023/05/09 01:29:29;;;;;;;2.85;1.65;;;;;;;7.42;100.00;101011.88;5011465;28;20068;-75
2023/05/09 01:31:57;;;;;;;0.63;0.63;;;;;;;7.58;100.00;101000.94;5030652;28;20056;-79
2023/05/09 01:34:27;;;;;;;4.07;2.33;;;;;;;7.00;100.00;100981.38;5012871;28;20400;-77
2023/05/09 01:36:57;;;;;;;0.65;0.57;;;;;;;7.05;100.00;100977.16;5001810;28;20040;-76
2023/05/09 01:39:24;;;;;;;4.80;2.17;;;;;;;6.40;100.00;100885.16;5010422;28;20125;-76
2023/05/09 01:41:54;;;;;;;1.50;1.40;;;;;;;7.21;100.00;101019.25;5012583;28;20069;-77
2023/05/09 01:44:21;;;;;;;3.33;1.77;;;;;;;6.34;100.00;100872.84;5012473;28;20048;-77
2023/05/09 01:46:49;;;;;;;2.70;1.73;;;;;;;7.13;100.00;101006.00;5004677;28;20057;-76
2023/05/09 01:49:16;;;;;;;0.73;0.73;;;;;;;6.65;100.00;100900.56;5012773;28;20045;-78
2023/05/09 01:51:43;;;;;;;1.88;1.25;;;;;;;7.01;100.00;100957.03;5009469;28;20109;-77
2023/05/09 01:54:10;;;;;;;1.15;0.40;;;;;;;6.50;100.00;100874.97;5004284;28;20045;-78
2023/05/09 01:56:39;;;;;;;5.22;2.75;;;;;;;6.42;100.00;100875.66;5007803;28;20045;-74
2023/05/09 01:59:06;;;;;;;0.95;0.63;;;;;;;6.38;100.00;100860.78;5022112;28;20048;-76
2023/05/09 02:01:33;;;;;;;1.92;1.75;;;;;;;7.23;100.00;101007.97;5034328;28;20052;-75
2023/05/09 02:04:01;;;;;;;0.60;0.60;;;;;;;7.01;100.00;100967.47;5032378;28;20052;-75
2023/05/09 02:06:28;;;;;;;0.80;0.80;;;;;;;6.52;100.00;100886.34;5028251;28;20044;-74
2023/05/09 02:08:54;;;;;;;6.13;2.25;;;;;;;6.76;100.00;100946.00;5026740;28;20133;-75
2023/05/09 02:11:20;;;;;;;0.35;0.35;;;;;;;6.45;100.00;100886.16;5032744;28;20160;-74
2023/05/09 02:13:45;;;;;;;0.73;0.30;;;;;;;6.42;100.00;100899.13;5033827;28;20599;-77
2023/05/09 02:16:11;;;;;;;0.30;0.30;;;;;;;6.42;100.00;100894.78;5033604;28;20041;-78
2023/05/09 02:18:37;;;;;;;2.95;1.88;;;;;;;7.10;100.00;101008.56;5029590;28;20398;-74
2023/05/09 02:21:03;;;;;;;0.65;0.40;;;;;;;6.42;100.00;100900.00;5038286;28;20508;-75
2023/05/09 02:23:29;;;;;;;0.20;0.20;;;;;;;7.24;100.00;101042.81;5052898;28;20041;-75
2023/05/09 02:25:55;;;;;;;4.10;2.13;;;;;;;6.28;100.00;100885.75;5035601;28;20053;-75
2023/05/09 02:28:24;;;;;;;2.63;1.52;;;;;;;6.42;100.00;100909.56;5032256;28;20041;-74
2023/05/09 02:30:52;;;;;;;0.55;0.38;;;;;;;6.53;100.00;100924.63;5034182;28;20024;-78
2023/05/09 02:33:17;;;;;;;0.57;0.40;;;;;;;7.02;100.00;101015.31;5026270;28;20628;-76
2023/05/09 02:35:45;;;;;;;1.15;1.05;;;;;;;6.58;100.00;100945.59;5032129;28;20045;-76
2023/05/09 02:38:11;;;;;;;3.55;2.30;;;;;;;7.13;100.00;101051.25;5045917;28;20053;-82
2023/05/09 02:40:38;;;;;;;3.17;1.67;;;;;;;6.42;100.00;100923.47;5028066;28;20124;-78
2023/05/09 02:43:03;;;;;;;0.63;0.45;;;;;;;7.07;100.00;101037.16;5046645;28;20191;-76
2023/05/09 02:45:28;;;;;;;4.57;2.42;;;;;;;6.57;100.00;100954.22;5035666;28;20037;-76
2023/05/09 02:47:54;;;;;;;3.30;1.90;;;;;;;7.15;100.00;101035.66;5032490;28;20439;-76
2023/05/09 02:50:19;;;;;;;1.00;0.85;;;;;;;6.33;100.00;100911.06;5028265;28;20041;-78
2023/05/09 02:52:45;;;;;;;0.68;0.40;;;;;;;7.09;100.00;101032.88;5036034;28;20136;-76
2023/05/09 02:55:10;;;;;;;1.95;1.40;;;;;;;6.23;100.00;100895.19;5028626;28;20091;-76
2023/05/09 02:57:36;;;;;;;0.40;0.40;;;;;;;6.90;100.00;101023.72;5021887;28;20022;-75
2023/05/09 03:00:03;;;;;;;3.15;1.88;;;;;;;6.53;100.00;100962.81;5010865;28;20096;-76
2023/05/09 03:02:28;;;;;;;2.95;1.65;;;;;;;7.16;100.00;101061.78;5026092;28;20041;-78
2023/05/09 03:04:54;;;;;;;1.38;1.23;;;;;;;6.36;100.00;100920.69;5031123;28;20049;-76
2023/05/09 03:07:19;;;;;;;4.72;2.55;;;;;;;7.14;100.00;101079.13;5038989;28;20432;-76
2023/05/09 03:09:45;;;;;;;0.25;0.25;;;;;;;6.94;100.00;101039.50;5031944;28;20049;-75
2023/05/09 03:12:10;;;;;;;1.85;0.52;;;;;;;6.43;100.00;100951.28;5035331;28;20135;-75
2023/05/09 03:14:36;;;;;;;3.35;1.92;;;;;;;6.17;100.00;100910.66;5033205;28;20084;-78
2023/05/09 03:17:01;;;;;;;0.60;0.52;;;;;;;6.51;100.00;100980.16;5032955;28;20045;-76
2023/05/09 03:19:26;;;;;;;0.30;0.30;;;;;;;7.03;100.00;101064.94;5027460;28;20038;-75
2023/05/09 03:21:52;;;;;;;3.05;1.83;;;;;;;7.27;100.00;101093.34;5014656;28;20029;-78
2023/05/09 03:24:17;;;;;;;2.85;1.33;;;;;;;7.07;100.00;101097.19;5023534;28;20058;-78
2023/05/09 03:26:43;;;;;;;4.82;2.53;;;;;;;7.09;100.00;101079.84;5011969;28;20496;-80
2023/05/09 03:29:08;;;;;;;0.30;0.30;;;;;;;6.84;100.00;101049.69;5012867;28;20440;-78
2023/05/09 03:31:34;;;;;;;4.28;1.75;;;;;;;6.46;100.00;100987.88;5020477;28;20441;-77
2023/05/09 03:34:00;;;;;;;0.50;0.47;;;;;;;6.66;100.00;101018.78;5043254;28;20047;-77
2023/05/09 03:36:26;;;;;;;2.92;1.85;;;;;;;6.35;100.00;100978.88;5045987;28;20384;-75
2023/05/09 03:38:51;;;;;;;0.17;0.17;;;;;;;6.23;100.00;100971.63;5036967;28;20042;-77
2023/05/09 03:41:17;;;;;;;0.40;0.40;;;;;;;7.12;100.00;101103.44;5026575;28;20091;-78
2023/05/09 03:43:43;;;;;;;0.52;0.52;;;;;;;6.92;100.00;101090.75;5024525;28;20140;-76
2023/05/09 03:46:09;;;;;;;0.43;0.30;;;;;;;7.12;100.00;101124.31;5051249;28;20311;-75
2023/05/09 03:48:34;;;;;;;2.28;0.43;;;;;;;7.35;100.00;101156.19;5032709;28;20029;-76
2023/05/09 03:51:00;;;;;;;3.17;1.80;;;;;;;6.86;100.00;101077.56;5037865;28;20064;-77
2023/05/09 03:53:25;;;;;;;3.53;1.92;;;;;;;6.73;100.00;101034.63;5047198;28;20098;-76
2023/05/09 03:55:50;;;;;;;1.98;1.88;;;;;;;7.33;100.00;101161.38;5036840;28;20049;-75
2023/05/09 03:58:18;;;;;;;2.55;1.95;;;;;;;7.08;100.00;101109.41;5045055;28;20069;-75
2023/05/09 04:00:43;;;;;;;0.95;0.55;;;;;;;7.44;100.00;101190.38;5018907;28;20108;-76
2023/05/09 04:03:09;;;;;;;3.03;1.73;;;;;;;7.36;100.00;101163.19;5010935;28;20145;-75
2023/05/09 04:05:35;;;;;;;4.60;2.33;;;;;;;7.33;100.00;101152.69;5024318;28;20053;-83
2023/05/09 04:08:01;;;;;;;0.90;0.55;;;;;;;6.61;100.00;101039.53;5036153;28;20107;-77
2023/05/09 04:10:26;;;;;;;0.52;0.38;;;;;;;6.71;100.00;101059.75;5033435;28;20504;-76
2023/05/09 04:12:52;;;;;;;6.03;2.58;;;;;;;7.53;100.00;101192.31;5033609;28;20025;-74
2023/05/09 04:15:17;;;;;;;3.25;2.10;;;;;;;6.81;100.00;101060.00;5038102;28;20731;-77
2023/05/09 04:17:43;;;;;;;3.45;1.95;;;;;;;7.37;100.00;101157.13;5026885;28;20045;-76
2023/05/09 04:20:09;;;;;;;0.70;0.45;;;;;;;7.12;100.00;101100.81;5031496;28;20057;-75
2023/05/09 04:22:35;;;;;;;0.20;0.20;;;;;;;7.67;100.00;101214.44;5028958;28;20095;-75
2023/05/09 04:25:02;;;;;;;0.47;0.47;;;;;;;7.31;100.00;101157.84;5030975;28;20025;-75
2023/05/09 04:27:27;;;;;;;5.47;2.90;;;;;;;6.77;100.00;101082.53;5031116;28;20029;-75
2023/05/09 04:29:53;;;;;;;5.10;1.90;;;;;;;6.95;100.00;101101.28;5033796;28;20060;-76
2023/05/09 04:32:19;;;;;;;3.28;1.90;;;;;;;7.70;100.00;101229.31;5034215;28;20351;-77
2023/05/09 04:34:45;;;;;;;5.75;2.05;;;;;;;7.32;100.00;101149.16;5043037;28;20176;-83
2023/05/09 04:37:12;;;;;;;0.60;0.50;;;;;;;6.89;100.00;101088.06;5019677;28;20044;-73
2023/05/09 04:39:37;;;;;;;0.40;0.40;;;;;;;7.88;100.00;101241.94;5024849;28;20045;-72
2023/05/09 04:42:03;;;;;;;4.50;3.08;;;;;;;7.08;100.00;101115.50;5005302;28;20042;-72
2023/05/09 04:44:29;;;;;;;4.07;2.60;;;;;;;7.14;100.00;101104.31;5019540;28;20077;-74
2023/05/09 04:46:54;;;;;;;0.57;0.55;;;;;;;7.88;100.00;101228.88;5027230;28;20063;-73
2023/05/09 04:49:20;;;;;;;1.58;0.50;;;;;;;7.98;100.00;101241.31;5027980;28;20396;-76
2023/05/09 04:51:45;;;;;;;3.65;2.17;;;;;;;7.97;100.00;101232.59;5035148;28;20029;-74
2023/05/09 04:54:11;;;;;;;4.05;1.77;;;;;;;8.14;100.00;101287.00;5031537;28;20029;-75
2023/05/09 04:56:36;;;;;;;3.20;2.10;;;;;;;7.70;100.00;101185.81;5034381;28;20045;-74
2023/05/09 04:59:02;;;;;;;4.47;2.75;;;;;;;7.52;100.00;101146.19;5037907;28;20045;-74
2023/05/09 05:01:27;;;;;;;0.40;0.30;;;;;;;7.56;100.00;101153.22;5026892;28;20049;-72
2023/05/09 05:03:53;;;;;;;3.40;1.98;;;;;;;7.81;100.00;101206.94;5029097;28;20033;-73
2023/05/09 05:06:18;;;;;;;4.43;2.40;;;;;;;7.45;100.00;101142.53;5037740;28;20045;-75
2023/05/09 05:08:44;;;;;;;3.85;2.22;;;;;;;7.66;100.00;101176.13;5029875;28;20160;-75
2023/05/09 05:11:09;;;;;;;5.97;1.92;;;;;;;8.22;100.00;101251.47;5033839;28;20049;-75
2023/05/09 05:13:35;;;;;;;3.67;1.85;;;;;;;7.66;100.00;101163.06;5033044;28;20029;-75
2023/05/09 05:16:00;;;;;;;5.15;3.35;;;;;;;7.87;100.00;101161.81;5029778;28;20048;-74
2023/05/09 05:18:25;;;;;;;7.93;2.67;;;;;;;7.88;100.00;101171.41;5035702;28;20574;-73
2023/05/09 05:20:51;;;;;;;4.22;2.00;;;;;;;8.52;100.00;101269.63;5035238;28;20037;-73
2023/05/09 05:23:17;;;;;;;5.05;2.88;;;;;;;8.40;100.00;101214.41;5027240;28;20048;-74
2023/05/09 05:25:42;;;;;;;4.30;2.22;;;;;;;9.04;100.00;101282.94;5031495;28;20042;-74
2023/05/09 05:28:09;;;;;;;5.18;2.63;;;;;;;9.77;100.00;101296.53;5035832;28;20613;-73
2023/05/09 05:30:34;;;;;;;4.30;2.65;;;;;;;9.76;100.00;101305.22;5034516;28;20030;-75
2023/05/09 05:33:00;;;;;;;5.13;2.38;;;;;;;9.62;100.00;101275.28;5032384;28;20080;-76
2023/05/09 05:35:27;;;;;;;5.00;3.28;;;;;;;9.51;100.00;101351.09;5031607;28;20033;-76
2023/05/09 05:37:52;;;;;;;4.07;2.25;;;;;;;9.63;100.00;101363.53;5037203;28;20481;-73
2023/05/09 05:40:18;;;;;;;6.70;2.28;;;;;;;9.24;100.00;101272.84;5028109;28;20046;-74
2023/05/09 05:42:44;;;;;;;4.32;2.67;;;;;;;8.25;100.00;101153.06;5020855;28;20048;-73
2023/05/09 05:45:10;;;;;;;3.38;1.85;;;;;;;9.70;100.00;101371.53;5038079;28;20449;-73
2023/05/09 05:47:36;;;;;;;2.72;1.25;;;;;;;10.48;100.00;101274.97;5025253;28;20045;-74
2023/05/09 05:50:05;;;;;;;5.32;2.28;;;;;;;10.86;100.00;101303.47;5027836;28;20053;-75
2023/05/09 05:52:31;;;;;;;4.03;2.08;;;;;;;11.71;100.00;101409.63;5040055;28;20041;-75
2023/05/09 05:54:57;;;;;;;3.83;2.55;;;;;;;11.27;100.00;101362.66;5029703;28;20090;-74
2023/05/09 05:57:22;;;;;;;4.25;2.55;;;;;;;10.86;100.00;101302.59;5027467;28;20033;-77
2023/05/09 05:59:49;;;;;;;3.65;2.00;;;;;;;12.21;100.00;101423.31;5036463;28;20068;-75
2023/05/09 06:02:18;;;;;;;3.58;1.50;;;;;;;11.43;100.00;101418.94;5023839;28;20044;-75
2023/05/09 06:04:43;;;;;;;6.20;1.92;;;;;;;11.76;100.00;101439.47;5027394;28;20106;-74
2023/05/09 06:07:11;;;;;;;4.55;1.95;;;;;;;11.19;100.00;101305.66;5031723;28;20592;-75
2023/05/09 06:09:36;;;;;;;6.70;2.22;;;;;;;10.98;100.00;101298.41;5043522;28;20129;-74
2023/05/09 06:12:02;;;;;;;4.70;2.25;;;;;;;11.81;100.00;101422.00;5028358;28;20057;-74
2023/05/09 06:14:28;;;;;;;4.25;2.10;;;;;;;12.80;100.00;101298.25;5030816;28;20128;-76
2023/05/09 06:16:53;;;;;;;5.38;2.25;;;;;;;12.06;100.00;101340.72;5030261;28;20049;-74
2023/05/09 06:19:18;;;;;;;5.75;2.40;;;;;;;12.73;100.00;101433.41;5047673;28;20038;-75
2023/05/09 06:21:44;;;;;;;4.43;2.22;;;;;;;12.27;100.00;101409.34;5037509;28;20033;-74
2023/05/09 06:24:10;;;;;;;3.47;2.15;;;;;;;12.43;100.00;101439.31;5033332;28;20045;-74
2023/05/09 06:26:35;;;;;;;4.40;2.08;;;;;;;12.36;100.00;101350.63;5044358;28;20118;-75
2023/05/09 06:29:02;;;;;;;2.92;1.70;;;;;;;11.28;100.00;101294.34;5044874;28;20041;-75
2023/05/09 06:31:28;;;;;;;2.53;1.40;;;;;;;11.42;100.00;101297.13;5034793;28;20053;-74
2023/05/09 06:33:53;;;;;;;3.70;2.15;;;;;;;11.37;100.00;101299.72;5042505;28;20116;-76
2023/05/09 06:36:19;;;;;;;2.55;1.63;;;;;;;11.32;100.00;101277.75;5042218;28;20110;-75
2023/05/09 06:38:45;;;;;;;2.75;1.30;;;;;;;11.94;100.00;101330.97;5027028;28;20067;-75
2023/05/09 06:41:11;;;;;;;3.72;1.80;;;;;;;12.04;100.00;101386.34;5040472;28;20053;-75
2023/05/09 06:43:36;;;;;;;8.48;1.88;;;;;;;11.86;100.00;101244.09;5029659;28;20044;-76
2023/05/09 06:46:02;;;;;;;2.67;1.77;;;;;;;12.51;100.00;101366.56;5017825;28;20063;-73
2023/05/09 06:48:28;;;;;;;4.13;2.13;;;;;;;13.56;100.00;101364.50;5050324;28;20117;-72
2023/05/09 06:50:53;;;;;;;4.38;2.28;;;;;;;13.66;100.00;101318.81;5040701;28;20516;-74
2023/05/09 06:53:19;;;;;;;5.50;3.03;;;;;;;14.43;100.00;101412.13;5041965;28;20049;-77
2023/05/09 06:55:44;;;;;;;4.00;1.60;;;;;;;12.77;100.00;101361.47;5036576;28;20133;-76
2023/05/09 06:58:10;;;;;;;4.03;1.73;;;;;;;11.40;100.00;101318.16;5035451;28;20112;-74
2023/05/09 07:00:36;;;;;;;5.43;1.30;;;;;;;10.62;100.00;101284.78;5045207;28;20618;-75
2023/05/09 07:03:02;;;;;;;2.50;1.25;;;;;;;11.47;100.00;101368.13;5035317;28;20041;-72
2023/05/09 07:05:27;;;;;;;2.35;1.55;;;;;;;10.90;100.00;101281.66;5041146;28;20119;-73
2023/05/09 07:07:55;;;;;;;4.53;2.00;;;;;;;11.06;100.00;101268.72;5038052;28;20045;-73
2023/05/09 07:10:21;;;;;;;3.40;2.13;;;;;;;12.07;100.00;101401.25;5031890;28;20497;-74
2023/05/09 07:12:47;;;;;;;2.58;1.88;;;;;;;10.96;100.00;101394.66;5038193;28;20068;-78
2023/05/09 07:15:12;;;;;;;5.35;2.13;;;;;;;11.34;100.00;101383.78;5035006;28;20041;-74
2023/05/09 07:17:38;;;;;;;3.15;1.60;;;;;;;11.75;100.00;101408.78;5041658;28;20079;-74
2023/05/09 07:20:04;;;;;;;3.97;1.92;;;;;;;12.05;100.00;101416.16;5033892;28;20057;-75
2023/05/09 07:22:30;;;;;;;3.13;2.00;;;;;;;11.48;100.00;101401.47;5044406;28;20044;-76
2023/05/09 07:24:55;;;;;;;5.53;2.03;;;;;;;11.67;100.00;101373.63;5041473;28;20040;-73
2023/05/09 07:27:21;;;;;;;3.85;2.40;;;;;;;12.31;100.00;101376.91;5034236;28;20037;-74
2023/05/09 07:29:48;;;;;;;5.22;2.55;;;;;;;12.71;100.00;101373.69;5028237;28;20076;-74
2023/05/09 07:32:13;;;;;;;3.70;2.10;;;;;;;12.44;100.00;101351.59;5029533;28;20056;-70
2023/05/09 07:34:39;;;;;;;5.75;2.67;;;;;;;11.00;100.00;101285.25;5030507;28;20054;-76
2023/05/09 07:37:04;;;;;;;5.10;2.72;;;;;;;11.27;100.00;101275.97;5032113;28;20061;-77
2023/05/09 07:39:30;;;;;;;5.43;3.17;;;;;;;11.30;100.00;101289.13;5029371;28;20040;-78
2023/05/09 07:41:55;;;;;;;3.72;1.67;;;;;;;11.79;100.00;101413.22;5015824;28;20516;-81
2023/05/09 07:44:21;;;;;;;3.15;1.80;;;;;;;11.49;100.00;101311.22;5010673;28;20042;-77
2023/05/09 07:46:46;;;;;;;6.82;2.40;;;;;;;11.77;100.00;101375.50;5018343;28;20101;-75
2023/05/09 07:49:12;;;;;;;7.53;2.30;;;;;;;11.47;100.00;101291.94;5030338;28;20041;-80
2023/05/09 07:51:37;;;;;;;5.00;2.35;;;;;;;11.99;100.00;101408.22;5040986;28;20033;-77
2023/05/09 07:54:03;;;;;;;3.97;2.03;;;;;;;12.17;100.00;101389.94;5038755;28;20125;-78
2023/05/09 07:56:28;;;;;;;6.50;2.53;;;;;;;11.52;100.00;101314.78;5029667;28;20050;-77
2023/05/09 07:58:53;;;;;;;3.95;1.48;;;;;;;11.08;100.00;101286.25;5021151;28;20046;-78
2023/05/09 08:01:19;;;;;;;4.25;1.20;;;;;;;11.50;100.00;101374.34;5010913;28;20046;-75
2023/05/09 08:03:44;;;;;;;4.22;1.88;;;;;;;10.85;100.00;101288.59;5028688;28;20095;-78
2023/05/09 08:06:10;;;;;;;5.47;1.80;;;;;;;11.95;100.00;101412.53;5028236;28;20045;-79
2023/05/09 08:08:35;;;;;;;3.20;1.77;;;;;;;11.46;100.00;101363.75;5027067;28;20041;-76
2023/05/09 08:11:01;;;;;;;3.50;1.55;;;;;;;11.05;100.00;101286.22;5028240;28;20057;-77
2023/05/09 08:13:26;;;;;;;3.70;1.95;;;;;;;11.64;100.00;101373.63;5025929;28;20041;-75
2023/05/09 08:15:52;;;;;;;3.20;1.95;;;;;;;11.35;100.00;101279.53;5018298;28;20040;-74
2023/05/09 08:18:17;;;;;;;2.55;1.65;;;;;;;12.19;100.00;101397.88;5027203;28;20042;-76
2023/05/09 08:20:42;;;;;;;6.75;2.08;;;;;;;11.72;100.00;101336.00;5028505;28;20041;-79
2023/05/09 08:23:08;;;;;;;3.55;1.70;;;;;;;11.83;100.00;101279.16;5028156;28;20076;-75
2023/05/09 08:25:33;;;;;;;5.80;2.65;;;;;;;12.21;100.00;101411.91;5028797;28;20048;-78
2023/05/09 08:27:59;;;;;;;4.00;2.03;;;;;;;11.56;100.00;101408.56;5028449;28;20056;-75
2023/05/09 08:30:25;;;;;;;3.42;1.83;;;;;;;11.44;100.00;101403.16;5028651;28;20091;-74
2023/05/09 08:32:50;;;;;;;3.15;1.40;;;;;;;11.49;100.00;101405.84;5027499;28;20056;-77
2023/05/09 08:35:15;;;;;;;2.47;1.60;;;;;;;10.77;100.00;101280.63;5028132;28;20041;-77
2023/05/09 08:37:41;;;;;;;4.18;2.25;;;;;;;11.86;100.00;101396.63;5019067;28;20048;-75
2023/05/09 08:40:07;;;;;;;4.00;2.08;;;;;;;11.05;100.00;101277.44;5020846;28;20044;-74
2023/05/09 08:42:36;;;;;;;5.20;1.90;;;;;;;10.94;100.00;101282.59;5034539;28;20017;-76
2023/05/09 08:45:09;;;;;;;4.22;2.42;;;;;;;11.82;100.00;101387.84;5018620;28;20046;-75
2023/05/09 08:47:38;;;;;;;4.32;2.28;;;;;;;11.92;100.00;101359.91;5027532;28;20049;-74
2023/05/09 08:50:04;;;;;;;3.65;2.45;;;;;;;11.38;100.00;101280.47;5024694;28;20365;-76
2023/05/09 08:52:32;;;;;;;3.63;1.63;;;;;;;11.64;100.00;101394.66;5027583;28;20489;-75
2023/05/09 08:54:58;;;;;;;5.60;2.10;;;;;;;11.71;100.00;101342.13;5026747;28;20079;-77
2023/05/09 08:57:26;;;;;;;15.05;4.88;;;;;;;11.73;100.00;101373.69;5042027;28;20132;-74
2023/05/09 08:59:51;;;;;;;4.50;2.35;;;;;;;11.33;100.00;101297.03;5006708;28;20081;-78
2023/05/09 09:02:18;;;;;;;3.45;1.70;;;;;;;11.50;100.00;101284.09;5005752;28;20061;-76
2023/05/09 09:04:44;;;;;;;4.10;1.92;;;;;;;11.15;100.00;101293.34;5013080;28;20505;-78
2023/05/09 09:07:11;;;;;;;5.65;2.72;;;;;;;12.02;100.00;101381.91;5025800;28;20088;-76
2023/05/09 09:09:43;;;;;;;3.97;2.30;;;;;;;12.09;100.00;101380.25;5026058;28;20040;-75
2023/05/09 09:12:09;;;;;;;4.18;2.13;;;;;;;11.32;100.00;101274.25;5021635;28;20038;-74
2023/05/09 09:14:38;;;;;;;3.40;1.85;;;;;;;11.88;100.00;101413.34;5024058;28;20126;-77
2023/05/09 09:17:06;;;;;;;5.07;1.80;;;;;;;12.10;100.00;101408.28;5025918;28;20057;-76
2023/05/09 09:19:34;;;;;;;3.50;2.08;;;;;;;11.39;100.00;101349.66;5026633;28;20049;-77
2023/05/09 09:22:06;;;;;;;2.70;1.90;;;;;;;11.54;100.00;101375.22;5025755;28;20048;-73
2023/05/09 09:24:33;;;;;;;2.58;1.52;;;;;;;11.30;100.00;101376.69;5023789;28;20511;-73
2023/05/09 09:27:05;;;;;;;4.10;2.25;;;;;;;11.17;100.00;101345.91;5024485;28;20136;-72
2023/05/09 09:29:32;;;;;;;4.57;2.90;;;;;;;11.00;100.00;101280.00;5026024;28;20073;-73
2023/05/09 09:32:01;;;;;;;3.25;2.17;;;;;;;11.27;100.00;101265.44;5017253;28;20054;-74
2023/05/09 09:34:27;;;;;;;4.47;2.35;;;;;;;12.14;100.00;101397.81;5007618;28;20064;-71
2023/05/09 09:36:52;;;;;;;5.38;3.03;;;;;;;12.34;100.00;101408.53;5024674;28;20444;-74
2023/05/09 09:39:18;;;;;;;5.90;2.70;;;;;;;12.46;100.00;101394.59;5022888;28;20099;-73
2023/05/09 09:41:44;;;;;;;19.70;8.15;;;;;;;12.50;100.00;101398.13;5008757;28;20052;-71
2023/05/09 09:44:12;;;;;;;28.95;10.48;;;;;;;12.65;100.00;101392.97;5004646;28;20046;-78
2023/05/09 09:46:40;;;;;;;7.10;4.88;;;;;;;12.00;100.00;101286.31;5029662;28;20050;-77
2023/05/09 09:49:08;;;;;;;3.88;2.28;;;;;;;12.24;100.00;101389.16;5025930;28;20033;-75
2023/05/09 09:51:34;;;;;;;10.70;2.50;;;;;;;11.24;100.00;101176.97;5026537;28;20042;-76
2023/05/09 09:54:05;;;;;;;6.40;2.35;;;;;;;11.66;100.00;101385.00;5002337;28;20053;-75
2023/05/09 09:56:46;;;;;;;7.90;4.70;;;;;;;11.91;100.00;101386.19;5006337;28;20127;-75
2023/05/09 09:59:23;;;;;;;3.80;2.60;;;;;;;11.01;100.00;101309.81;5016926;28;20052;-73
2023/05/09 10:01:54;;;;;;;10.45;4.75;;;;;;;11.53;100.00;101402.41;5020728;28;20134;-76
2023/05/09 10:04:20;;;;;;;21.58;10.43;;;;;;;11.54;100.00;101359.47;5026154;28;20047;-75
2023/05/09 10:06:58;;;;;;;11.95;4.55;;;;;;;12.09;100.00;101380.25;5026396;28;20041;-75
2023/05/09 10:09:25;;;;;;;16.30;5.13;;;;;;;11.91;100.00;101360.75;5026183;28;20071;-75
2023/05/09 10:11:52;;;;;;;5.35;2.67;;;;;;;11.99;100.00;101382.78;5022515;28;20052;-78
2023/05/09 10:14:20;;;;;;;3.60;2.35;;;;;;;12.34;100.00;101345.38;5011440;28;20408;-74
2023/05/09 10:16:51;;;;;;;4.93;2.42;;;;;;;12.72;100.00;101335.97;5006752;28;20859;-74
2023/05/09 10:19:19;;;;;;;4.53;2.60;;;;;;;12.81;100.00;101284.22;5023898;28;20461;-76
2023/05/09 10:21:51;;;;;;;5.55;2.35;;;;;;;12.06;100.00;101274.97;5022895;28;20033;-77
2023/05/09 10:24:54;;;;;;;9.25;3.25;;;;;;;13.07;100.00;101392.38;5026201;28;20128;-75
2023/05/09 10:27:23;;;;;;;5.45;3.38;;;;;;;11.67;100.00;101305.28;5015519;28;20060;-76
2023/05/09 10:29:56;;;;;;;6.85;3.38;;;;;;;12.80;100.00;101406.25;5019354;28;20159;-77
2023/05/09 10:32:36;;;;;;;4.28;3.20;;;;;;;12.75;100.00;101380.75;5026909;28;20574;-81
2023/05/09 10:35:05;;;;;;;5.47;2.80;;;;;;;12.15;100.00;101275.94;5028065;28;20131;-76
2023/05/09 10:37:31;;;;;;;7.13;2.80;;;;;;;12.16;100.00;101304.00;5021998;28;20517;-75
2023/05/09 10:39:57;;;;;;;4.97;2.28;;;;;;;12.77;100.00;101385.16;5017790;28;20041;-75
2023/05/09 10:42:24;;;;;;;4.28;2.75;;;;;;;11.52;100.00;101246.44;5013906;28;20357;-81
2023/05/09 10:44:51;;;;;;;7.03;4.45;;;;;;;12.03;100.00;101287.25;5037438;28;20406;-75
2023/05/09 10:47:17;;;;;;;3.40;2.20;;;;;;;12.27;100.00;101367.25;5021146;28;20386;-75
2023/05/09 10:49:44;;;;;;;5.18;2.65;;;;;;;12.13;100.00;101364.50;5025425;28;20449;-74
2023/05/09 10:52:10;;;;;;;4.97;2.53;;;;;;;12.18;100.00;101378.56;5025351;28;20029;-76
2023/05/09 10:54:36;;;;;;;3.92;2.22;;;;;;;11.86;100.00;101372.97;5026539;28;20090;-77
2023/05/09 10:57:02;;;;;;;4.15;2.78;;;;;;;11.05;100.00;101243.31;5019630;28;20060;-75
2023/05/09 10:59:31;;;;;;;3.85;2.72;;;;;;;12.53;100.00;101361.31;5025670;28;20124;-75
2023/05/09 11:01:59;;;;;;;6.03;3.20;;;;;;;12.46;100.00;101262.97;5023754;28;20068;-76
2023/05/09 11:04:25;;;;;;;5.45;2.60;;;;;;;12.20;100.00;101347.03;5024444;28;20080;-76
2023/05/09 11:06:51;;;;;;;7.15;2.92;;;;;;;11.64;100.00;101247.44;5026346;28;20121;-74
2023/05/09 11:09:27;;;;;;;4.50;2.55;;;;;;;12.36;100.00;101304.16;5028929;28;20037;-74
2023/05/09 11:11:59;;;;;;;5.50;3.50;;;;;;;12.55;100.00;101399.94;5028668;28;20060;-75
2023/05/09 11:14:48;;;;;;;3.92;2.50;;;;;;;11.97;100.00;101397.66;5021235;28;20129;-75
2023/05/09 11:17:37;;;;;;;6.30;3.92;;;;;;;12.06;100.00;101394.25;5025410;28;20057;-74
2023/05/09 11:20:05;;;;;;;5.22;2.45;;;;;;;11.44;100.00;101278.75;5028218;28;20049;-75
2023/05/09 11:22:40;;;;;;;5.82;3.40;;;;;;;12.21;100.00;101381.22;5025996;28;20049;-75